sensor_id;sensor_type;location;lat;lon;timestamp;P1;durP1;ratioP1;P2;durP2;ratioP2
12163;SDS011;6145;50.192;10.064;2023-05-10T00:00:02;5.47;;;5.00;;
12163;SDS011;6145;50.192;10.064;2023-05-10T00:02:29;6.77;;;6.07;;
12163;SDS011;6145;50.192;10.064;2023-05-10T00:04:59;6.33;;;5.83;;
12163;SDS011;6145;50.192;10.064;2023-05-10T00:07:27;6.87;;;6.17;;
12163;SDS011;6145;50.192;10.064;2023-05-10T00:09:54;6.77;;;6.17;;
12163;SDS011;6145;50.192;10.064;2023-05-10T00:12:21;4.80;;;4.40;;
12163;SDS011;6145;50.192;10.064;2023-05-10T00:14:48;4.23;;;3.87;;
12163;SDS011;6145;50.192;10.064;2023-05-10T00:17:15;5.43;;;5.00;;
12163;SDS011;6145;50.192;10.064;2023-05-10T00:19:42;4.57;;;4.17;;
12163;SDS011;6145;50.192;10.064;2023-05-10T00:22:08;4.57;;;4.17;;
12163;SDS011;6145;50.192;10.064;2023-05-10T00:24:37;5.33;;;4.83;;
12163;SDS011;6145;50.192;10.064;2023-05-10T00:27:03;5.27;;;4.70;;
12163;SDS011;6145;50.192;10.064;2023-05-10T00:29:30;5.53;;;5.13;;
12163;SDS011;6145;50.192;10.064;2023-05-10T00:31:58;4.80;;;4.40;;
12163;SDS011;6145;50.192;10.064;2023-05-10T00:34:25;5.53;;;5.03;;
12163;SDS011;6145;50.192;10.064;2023-05-10T00:36:52;6.13;;;4.80;;
12163;SDS011;6145;50.192;10.064;2023-05-10T00:39:19;4.80;;;4.50;;
12163;SDS011;6145;50.192;10.064;2023-05-10T00:41:47;5.37;;;4.97;;
12163;SDS011;6145;50.192;10.064;2023-05-10T00:44:14;5.77;;;4.40;;
12163;SDS011;6145;50.192;10.064;2023-05-10T00:46:41;4.40;;;4.00;;
12163;SDS011;6145;50.192;10.064;2023-05-10T00:49:08;4.90;;;4.40;;
12163;SDS011;6145;50.192;10.064;2023-05-10T00:51:35;5.27;;;4.77;;
12163;SDS011;6145;50.192;10.064;2023-05-10T00:54:02;4.17;;;3.87;;
12163;SDS011;6145;50.192;10.064;2023-05-10T00:56:30;3.20;;;2.90;;
12163;SDS011;6145;50.192;10.064;2023-05-10T00:58:59;4.30;;;3.90;;
12163;SDS011;6145;50.192;10.064;2023-05-10T01:01:26;3.43;;;3.00;;
12163;SDS011;6145;50.192;10.064;2023-05-10T01:03:53;3.63;;;3.33;;
12163;SDS011;6145;50.192;10.064;2023-05-10T01:06:21;3.50;;;3.20;;
12163;SDS011;6145;50.192;10.064;2023-05-10T01:08:48;3.77;;;3.30;;
12163;SDS011;6145;50.192;10.064;2023-05-10T01:11:16;3.27;;;2.97;;
12163;SDS011;6145;50.192;10.064;2023-05-10T01:13:43;3.60;;;3.30;;
12163;SDS011;6145;50.192;10.064;2023-05-10T01:16:15;4.10;;;3.33;;
12163;SDS011;6145;50.192;10.064;2023-05-10T01:18:42;3.87;;;3.07;;
12163;SDS011;6145;50.192;10.064;2023-05-10T01:21:15;3.20;;;2.50;;
12163;SDS011;6145;50.192;10.064;2023-05-10T01:24:01;2.63;;;2.40;;
12163;SDS011;6145;50.192;10.064;2023-05-10T01:33:02;2.10;;;1.97;;
12163;SDS011;6145;50.192;10.064;2023-05-10T01:35:37;2.63;;;1.90;;
12163;SDS011;6145;50.192;10.064;2023-05-10T01:38:12;2.20;;;2.10;;
12163;SDS011;6145;50.192;10.064;2023-05-10T01:40:47;2.40;;;2.20;;
12163;SDS011;6145;50.192;10.064;2023-05-10T01:43:25;2.10;;;2.00;;
12163;SDS011;6145;50.192;10.064;2023-05-10T01:45:59;2.43;;;2.23;;
12163;SDS011;6145;50.192;10.064;2023-05-10T01:48:37;2.60;;;2.40;;
12163;SDS011;6145;50.192;10.064;2023-05-10T01:51:08;2.60;;;2.20;;
12163;SDS011;6145;50.192;10.064;2023-05-10T01:53:37;3.17;;;2.20;;
12163;SDS011;6145;50.192;10.064;2023-05-10T01:56:05;2.67;;;2.20;;
12163;SDS011;6145;50.192;10.064;2023-05-10T01:58:35;2.50;;;2.30;;
12163;SDS011;6145;50.192;10.064;2023-05-10T02:01:03;2.13;;;2.03;;
12163;SDS011;6145;50.192;10.064;2023-05-10T02:03:32;3.20;;;2.40;;
12163;SDS011;6145;50.192;10.064;2023-05-10T02:06:04;2.07;;;1.87;;
12163;SDS011;6145;50.192;10.064;2023-05-10T02:08:32;2.50;;;2.30;;
12163;SDS011;6145;50.192;10.064;2023-05-10T02:11:03;2.43;;;2.23;;
12163;SDS011;6145;50.192;10.064;2023-05-10T02:13:31;2.60;;;2.40;;
12163;SDS011;6145;50.192;10.064;2023-05-10T02:16:00;5.43;;;2.77;;
12163;SDS011;6145;50.192;10.064;2023-05-10T02:18:29;2.20;;;2.00;;
12163;SDS011;6145;50.192;10.064;2023-05-10T02:20:59;1.97;;;1.50;;
12163;SDS011;6145;50.192;10.064;2023-05-10T02:23:29;1.50;;;1.40;;
12163;SDS011;6145;50.192;10.064;2023-05-10T02:25:57;1.53;;;1.43;;
12163;SDS011;6145;50.192;10.064;2023-05-10T02:28:26;2.73;;;1.30;;
12163;SDS011;6145;50.192;10.064;2023-05-10T02:30:55;2.17;;;1.50;;
12163;SDS011;6145;50.192;10.064;2023-05-10T02:33:24;1.90;;;1.30;;
12163;SDS011;6145;50.192;10.064;2023-05-10T02:35:52;1.20;;;1.10;;
12163;SDS011;6145;50.192;10.064;2023-05-10T02:38:20;1.27;;;1.17;;
12163;SDS011;6145;50.192;10.064;2023-05-10T02:40:49;1.10;;;1.00;;
12163;SDS011;6145;50.192;10.064;2023-05-10T02:43:16;1.90;;;1.10;;
12163;SDS011;6145;50.192;10.064;2023-05-10T02:45:45;0.83;;;0.83;;
12163;SDS011;6145;50.192;10.064;2023-05-10T02:48:14;1.03;;;1.03;;
12163;SDS011;6145;50.192;10.064;2023-05-10T02:50:42;1.10;;;0.83;;
12163;SDS011;6145;50.192;10.064;2023-05-10T02:53:15;1.43;;;0.77;;
12163;SDS011;6145;50.192;10.064;2023-05-10T02:55:47;0.97;;;0.90;;
12163;SDS011;6145;50.192;10.064;2023-05-10T02:58:17;1.33;;;0.77;;
12163;SDS011;6145;50.192;10.064;2023-05-10T03:00:45;0.63;;;0.63;;
12163;SDS011;6145;50.192;10.064;2023-05-10T03:03:12;0.80;;;0.73;;
12163;SDS011;6145;50.192;10.064;2023-05-10T03:05:39;0.93;;;0.63;;
12163;SDS011;6145;50.192;10.064;2023-05-10T03:08:06;0.80;;;0.80;;
12163;SDS011;6145;50.192;10.064;2023-05-10T03:10:33;0.63;;;0.63;;
12163;SDS011;6145;50.192;10.064;2023-05-10T03:13:13;1.77;;;0.90;;
12163;SDS011;6145;50.192;10.064;2023-05-10T03:15:47;1.17;;;0.83;;
12163;SDS011;6145;50.192;10.064;2023-05-10T03:18:22;0.80;;;0.80;;
12163;SDS011;6145;50.192;10.064;2023-05-10T03:20:55;0.87;;;0.87;;
12163;SDS011;6145;50.192;10.064;2023-05-10T03:23:26;1.00;;;0.63;;
12163;SDS011;6145;50.192;10.064;2023-05-10T03:25:56;0.73;;;0.70;;
12163;SDS011;6145;50.192;10.064;2023-05-10T03:28:25;0.73;;;0.73;;
12163;SDS011;6145;50.192;10.064;2023-05-10T03:30:53;0.80;;;0.80;;
12163;SDS011;6145;50.192;10.064;2023-05-10T03:33:20;0.80;;;0.80;;
12163;SDS011;6145;50.192;10.064;2023-05-10T03:35:47;0.70;;;0.70;;
12163;SDS011;6145;50.192;10.064;2023-05-10T03:38:14;1.00;;;1.00;;
12163;SDS011;6145;50.192;10.064;2023-05-10T03:40:41;0.80;;;0.80;;
12163;SDS011;6145;50.192;10.064;2023-05-10T03:43:07;0.80;;;0.80;;
12163;SDS011;6145;50.192;10.064;2023-05-10T03:45:36;0.80;;;0.80;;
12163;SDS011;6145;50.192;10.064;2023-05-10T03:48:03;1.00;;;0.80;;
12163;SDS011;6145;50.192;10.064;2023-05-10T03:50:31;1.53;;;1.10;;
12163;SDS011;6145;50.192;10.064;2023-05-10T03:52:58;0.87;;;0.83;;
12163;SDS011;6145;50.192;10.064;2023-05-10T03:55:24;1.10;;;0.97;;
12163;SDS011;6145;50.192;10.064;2023-05-10T03:57:51;0.80;;;0.80;;
12163;SDS011;6145;50.192;10.064;2023-05-10T04:00:19;0.90;;;0.90;;
12163;SDS011;6145;50.192;10.064;2023-05-10T04:02:50;0.70;;;0.70;;
12163;SDS011;6145;50.192;10.064;2023-05-10T04:05:17;0.77;;;0.77;;
12163;SDS011;6145;50.192;10.064;2023-05-10T04:07:44;1.50;;;0.63;;
12163;SDS011;6145;50.192;10.064;2023-05-10T04:10:14;1.00;;;0.90;;
12163;SDS011;6145;50.192;10.064;2023-05-10T04:12:41;0.83;;;0.70;;
12163;SDS011;6145;50.192;10.064;2023-05-10T04:15:08;0.80;;;0.70;;
12163;SDS011;6145;50.192;10.064;2023-05-10T04:17:35;1.37;;;0.70;;
12163;SDS011;6145;50.192;10.064;2023-05-10T04:20:04;0.90;;;0.90;;
12163;SDS011;6145;50.192;10.064;2023-05-10T04:22:34;0.50;;;0.50;;
12163;SDS011;6145;50.192;10.064;2023-05-10T04:25:01;0.60;;;0.60;;
12163;SDS011;6145;50.192;10.064;2023-05-10T04:29:58;1.93;;;1.20;;
12163;SDS011;6145;50.192;10.064;2023-05-10T04:32:25;0.83;;;0.80;;
12163;SDS011;6145;50.192;10.064;2023-05-10T04:34:52;0.67;;;0.63;;
12163;SDS011;6145;50.192;10.064;2023-05-10T04:37:22;0.50;;;0.50;;
12163;SDS011;6145;50.192;10.064;2023-05-10T04:39:49;0.73;;;0.73;;
12163;SDS011;6145;50.192;10.064;2023-05-10T04:42:16;1.23;;;0.60;;
12163;SDS011;6145;50.192;10.064;2023-05-10T04:44:43;1.07;;;0.77;;
12163;SDS011;6145;50.192;10.064;2023-05-10T04:49:50;0.57;;;0.57;;
12163;SDS011;6145;50.192;10.064;2023-05-10T04:52:17;0.87;;;0.60;;
12163;SDS011;6145;50.192;10.064;2023-05-10T04:54:46;0.43;;;0.43;;
12163;SDS011;6145;50.192;10.064;2023-05-10T04:57:13;0.70;;;0.70;;
12163;SDS011;6145;50.192;10.064;2023-05-10T04:59:40;0.70;;;0.70;;
12163;SDS011;6145;50.192;10.064;2023-05-10T05:02:08;0.50;;;0.50;;
12163;SDS011;6145;50.192;10.064;2023-05-10T05:04:35;1.37;;;0.73;;
12163;SDS011;6145;50.192;10.064;2023-05-10T05:07:02;0.50;;;0.50;;
12163;SDS011;6145;50.192;10.064;2023-05-10T05:09:30;1.23;;;0.70;;
12163;SDS011;6145;50.192;10.064;2023-05-10T05:11:58;0.60;;;0.60;;
12163;SDS011;6145;50.192;10.064;2023-05-10T05:17:10;0.73;;;0.73;;
12163;SDS011;6145;50.192;10.064;2023-05-10T05:19:37;0.70;;;0.70;;
12163;SDS011;6145;50.192;10.064;2023-05-10T05:22:06;1.53;;;0.57;;
12163;SDS011;6145;50.192;10.064;2023-05-10T05:24:36;1.53;;;0.70;;
12163;SDS011;6145;50.192;10.064;2023-05-10T05:27:03;0.80;;;0.80;;
12163;SDS011;6145;50.192;10.064;2023-05-10T05:29:30;0.73;;;0.73;;
12163;SDS011;6145;50.192;10.064;2023-05-10T05:31:58;0.80;;;0.70;;
12163;SDS011;6145;50.192;10.064;2023-05-10T05:34:45;1.97;;;1.00;;
12163;SDS011;6145;50.192;10.064;2023-05-10T05:37:12;0.70;;;0.70;;
12163;SDS011;6145;50.192;10.064;2023-05-10T05:39:42;0.80;;;0.80;;
12163;SDS011;6145;50.192;10.064;2023-05-10T05:42:09;1.07;;;0.80;;
12163;SDS011;6145;50.192;10.064;2023-05-10T05:44:36;0.83;;;0.83;;
12163;SDS011;6145;50.192;10.064;2023-05-10T05:47:03;0.70;;;0.70;;
12163;SDS011;6145;50.192;10.064;2023-05-10T05:49:31;0.70;;;0.70;;
12163;SDS011;6145;50.192;10.064;2023-05-10T05:51:58;2.23;;;0.80;;
12163;SDS011;6145;50.192;10.064;2023-05-10T05:54:25;0.80;;;0.80;;
12163;SDS011;6145;50.192;10.064;2023-05-10T05:56:54;1.17;;;0.80;;
12163;SDS011;6145;50.192;10.064;2023-05-10T05:59:23;0.77;;;0.77;;
12163;SDS011;6145;50.192;10.064;2023-05-10T06:01:53;0.70;;;0.70;;
12163;SDS011;6145;50.192;10.064;2023-05-10T06:04:20;0.60;;;0.60;;
12163;SDS011;6145;50.192;10.064;2023-05-10T06:06:46;2.47;;;0.90;;
12163;SDS011;6145;50.192;10.064;2023-05-10T06:09:13;2.27;;;0.80;;
12163;SDS011;6145;50.192;10.064;2023-05-10T06:11:41;3.60;;;0.70;;
12163;SDS011;6145;50.192;10.064;2023-05-10T06:14:09;0.60;;;0.60;;
12163;SDS011;6145;50.192;10.064;2023-05-10T06:16:36;4.00;;;0.90;;
12163;SDS011;6145;50.192;10.064;2023-05-10T06:19:03;0.73;;;0.73;;
12163;SDS011;6145;50.192;10.064;2023-05-10T06:21:30;0.77;;;0.77;;
12163;SDS011;6145;50.192;10.064;2023-05-10T06:23:57;0.80;;;0.80;;
12163;SDS011;6145;50.192;10.064;2023-05-10T06:26:24;1.23;;;0.63;;
12163;SDS011;6145;50.192;10.064;2023-05-10T06:28:54;1.10;;;0.70;;
12163;SDS011;6145;50.192;10.064;2023-05-10T06:31:22;0.90;;;0.70;;
12163;SDS011;6145;50.192;10.064;2023-05-10T06:33:49;1.13;;;0.57;;
12163;SDS011;6145;50.192;10.064;2023-05-10T06:36:15;0.60;;;0.60;;
12163;SDS011;6145;50.192;10.064;2023-05-10T06:38:42;0.80;;;0.80;;
12163;SDS011;6145;50.192;10.064;2023-05-10T06:41:09;1.00;;;0.70;;
12163;SDS011;6145;50.192;10.064;2023-05-10T06:43:36;0.80;;;0.80;;
12163;SDS011;6145;50.192;10.064;2023-05-10T06:46:05;0.70;;;0.70;;
12163;SDS011;6145;50.192;10.064;2023-05-10T06:48:36;0.70;;;0.70;;
12163;SDS011;6145;50.192;10.064;2023-05-10T06:51:03;0.80;;;0.80;;
12163;SDS011;6145;50.192;10.064;2023-05-10T06:53:30;0.80;;;0.80;;
12163;SDS011;6145;50.192;10.064;2023-05-10T06:55:57;1.50;;;0.80;;
12163;SDS011;6145;50.192;10.064;2023-05-10T06:58:24;0.80;;;0.80;;
12163;SDS011;6145;50.192;10.064;2023-05-10T07:00:51;0.90;;;0.90;;
12163;SDS011;6145;50.192;10.064;2023-05-10T07:03:18;2.03;;;0.83;;
12163;SDS011;6145;50.192;10.064;2023-05-10T07:05:46;1.00;;;0.90;;
12163;SDS011;6145;50.192;10.064;2023-05-10T07:08:13;0.90;;;0.90;;
12163;SDS011;6145;50.192;10.064;2023-05-10T07:10:40;0.70;;;0.70;;
12163;SDS011;6145;50.192;10.064;2023-05-10T07:13:07;1.53;;;0.90;;
12163;SDS011;6145;50.192;10.064;2023-05-10T07:15:35;1.90;;;0.80;;
12163;SDS011;6145;50.192;10.064;2023-05-10T07:18:02;1.03;;;0.70;;
12163;SDS011;6145;50.192;10.064;2023-05-10T07:20:30;0.83;;;0.83;;
12163;SDS011;6145;50.192;10.064;2023-05-10T07:22:58;0.90;;;0.90;;
12163;SDS011;6145;50.192;10.064;2023-05-10T07:25:26;1.00;;;0.90;;
12163;SDS011;6145;50.192;10.064;2023-05-10T07:27:53;4.23;;;0.90;;
12163;SDS011;6145;50.192;10.064;2023-05-10T07:30:20;0.80;;;0.80;;
12163;SDS011;6145;50.192;10.064;2023-05-10T07:32:47;1.00;;;0.90;;
12163;SDS011;6145;50.192;10.064;2023-05-10T07:35:14;1.03;;;1.03;;
12163;SDS011;6145;50.192;10.064;2023-05-10T07:37:43;1.53;;;1.00;;
12163;SDS011;6145;50.192;10.064;2023-05-10T07:40:12;1.70;;;1.00;;
12163;SDS011;6145;50.192;10.064;2023-05-10T07:42:39;1.43;;;0.90;;
12163;SDS011;6145;50.192;10.064;2023-05-10T07:45:06;1.97;;;1.10;;
12163;SDS011;6145;50.192;10.064;2023-05-10T07:47:35;1.43;;;0.93;;
12163;SDS011;6145;50.192;10.064;2023-05-10T07:50:02;1.20;;;1.10;;
12163;SDS011;6145;50.192;10.064;2023-05-10T07:52:29;2.70;;;1.30;;
12163;SDS011;6145;50.192;10.064;2023-05-10T07:54:56;1.33;;;1.23;;
12163;SDS011;6145;50.192;10.064;2023-05-10T07:57:24;2.20;;;1.40;;
12163;SDS011;6145;50.192;10.064;2023-05-10T07:59:51;1.30;;;1.20;;
12163;SDS011;6145;50.192;10.064;2023-05-10T08:02:18;1.90;;;1.40;;
12163;SDS011;6145;50.192;10.064;2023-05-10T08:04:45;2.90;;;1.80;;
12163;SDS011;6145;50.192;10.064;2023-05-10T08:07:11;2.50;;;1.60;;
12163;SDS011;6145;50.192;10.064;2023-05-10T08:09:38;1.97;;;1.77;;
12163;SDS011;6145;50.192;10.064;2023-05-10T08:12:08;2.20;;;2.10;;
12163;SDS011;6145;50.192;10.064;2023-05-10T08:14:36;1.90;;;1.80;;
12163;SDS011;6145;50.192;10.064;2023-05-10T08:17:03;1.93;;;1.83;;
12163;SDS011;6145;50.192;10.064;2023-05-10T08:19:30;2.20;;;1.70;;
12163;SDS011;6145;50.192;10.064;2023-05-10T08:21:57;2.27;;;2.07;;
12163;SDS011;6145;50.192;10.064;2023-05-10T08:24:24;3.93;;;2.10;;
12163;SDS011;6145;50.192;10.064;2023-05-10T08:26:51;2.47;;;1.93;;
12163;SDS011;6145;50.192;10.064;2023-05-10T08:29:18;2.20;;;2.10;;
12163;SDS011;6145;50.192;10.064;2023-05-10T08:31:49;2.63;;;2.03;;
12163;SDS011;6145;50.192;10.064;2023-05-10T08:34:16;5.00;;;2.13;;
12163;SDS011;6145;50.192;10.064;2023-05-10T08:36:43;2.07;;;1.97;;
12163;SDS011;6145;50.192;10.064;2023-05-10T08:39:10;2.30;;;2.20;;
12163;SDS011;6145;50.192;10.064;2023-05-10T08:41:39;3.20;;;2.10;;
12163;SDS011;6145;50.192;10.064;2023-05-10T08:44:09;2.03;;;1.80;;
12163;SDS011;6145;50.192;10.064;2023-05-10T08:46:37;2.53;;;1.90;;
12163;SDS011;6145;50.192;10.064;2023-05-10T08:49:11;2.00;;;1.80;;
12163;SDS011;6145;50.192;10.064;2023-05-10T08:51:44;2.40;;;2.20;;
12163;SDS011;6145;50.192;10.064;2023-05-10T08:54:16;2.50;;;2.30;;
12163;SDS011;6145;50.192;10.064;2023-05-10T08:56:43;2.90;;;2.60;;
12163;SDS011;6145;50.192;10.064;2023-05-10T08:59:10;2.50;;;2.30;;
12163;SDS011;6145;50.192;10.064;2023-05-10T09:01:39;2.57;;;2.37;;
12163;SDS011;6145;50.192;10.064;2023-05-10T09:04:09;3.10;;;2.30;;
12163;SDS011;6145;50.192;10.064;2023-05-10T09:06:38;3.53;;;2.23;;
12163;SDS011;6145;50.192;10.064;2023-05-10T09:09:05;2.90;;;2.07;;
12163;SDS011;6145;50.192;10.064;2023-05-10T09:11:32;2.30;;;2.10;;
12163;SDS011;6145;50.192;10.064;2023-05-10T09:13:59;2.37;;;2.23;;
12163;SDS011;6145;50.192;10.064;2023-05-10T09:16:27;3.40;;;2.23;;
12163;SDS011;6145;50.192;10.064;2023-05-10T09:18:54;3.47;;;2.50;;
12163;SDS011;6145;50.192;10.064;2023-05-10T09:21:22;7.50;;;3.30;;
12163;SDS011;6145;50.192;10.064;2023-05-10T09:23:50;2.60;;;2.40;;
12163;SDS011;6145;50.192;10.064;2023-05-10T09:26:21;2.20;;;2.10;;
12163;SDS011;6145;50.192;10.064;2023-05-10T09:28:51;7.10;;;2.80;;
12163;SDS011;6145;50.192;10.064;2023-05-10T09:31:20;2.70;;;2.50;;
12163;SDS011;6145;50.192;10.064;2023-05-10T09:33:50;3.00;;;2.80;;
12163;SDS011;6145;50.192;10.064;2023-05-10T09:36:17;2.60;;;2.40;;
12163;SDS011;6145;50.192;10.064;2023-05-10T09:38:47;3.80;;;2.50;;
12163;SDS011;6145;50.192;10.064;2023-05-10T09:41:20;4.00;;;2.40;;
12163;SDS011;6145;50.192;10.064;2023-05-10T09:43:48;3.20;;;2.73;;
12163;SDS011;6145;50.192;10.064;2023-05-10T09:46:16;3.63;;;2.50;;
12163;SDS011;6145;50.192;10.064;2023-05-10T09:48:43;3.83;;;2.20;;
12163;SDS011;6145;50.192;10.064;2023-05-10T09:51:18;2.50;;;2.30;;
12163;SDS011;6145;50.192;10.064;2023-05-10T09:53:45;2.27;;;2.00;;
12163;SDS011;6145;50.192;10.064;2023-05-10T09:56:12;2.60;;;2.40;;
12163;SDS011;6145;50.192;10.064;2023-05-10T09:58:40;4.43;;;2.33;;
12163;SDS011;6145;50.192;10.064;2023-05-10T10:01:10;2.70;;;2.23;;
12163;SDS011;6145;50.192;10.064;2023-05-10T10:03:41;2.73;;;2.53;;
12163;SDS011;6145;50.192;10.064;2023-05-10T10:06:11;2.47;;;2.20;;
12163;SDS011;6145;50.192;10.064;2023-05-10T10:08:45;2.30;;;2.10;;
12163;SDS011;6145;50.192;10.064;2023-05-10T10:11:12;2.27;;;2.00;;
12163;SDS011;6145;50.192;10.064;2023-05-10T10:13:41;3.70;;;2.23;;
12163;SDS011;6145;50.192;10.064;2023-05-10T10:16:08;2.40;;;2.20;;
12163;SDS011;6145;50.192;10.064;2023-05-10T10:18:35;2.17;;;1.97;;
12163;SDS011;6145;50.192;10.064;2023-05-10T10:21:04;3.13;;;2.00;;
12163;SDS011;6145;50.192;10.064;2023-05-10T10:23:31;3.13;;;2.23;;
12163;SDS011;6145;50.192;10.064;2023-05-10T10:25:58;3.97;;;1.93;;
12163;SDS011;6145;50.192;10.064;2023-05-10T10:28:26;3.27;;;2.27;;
12163;SDS011;6145;50.192;10.064;2023-05-10T10:31:10;2.20;;;2.00;;
12163;SDS011;6145;50.192;10.064;2023-05-10T10:33:55;3.70;;;2.20;;
12163;SDS011;6145;50.192;10.064;2023-05-10T10:36:26;2.47;;;2.20;;
12163;SDS011;6145;50.192;10.064;2023-05-10T10:38:57;2.33;;;2.13;;
12163;SDS011;6145;50.192;10.064;2023-05-10T10:41:32;2.77;;;2.17;;
12163;SDS011;6145;50.192;10.064;2023-05-10T10:47:00;2.80;;;2.37;;
12163;SDS011;6145;50.192;10.064;2023-05-10T10:49:30;4.27;;;1.80;;
12163;SDS011;6145;50.192;10.064;2023-05-10T10:52:14;3.47;;;2.30;;
12163;SDS011;6145;50.192;10.064;2023-05-10T10:54:51;2.43;;;2.03;;
12163;SDS011;6145;50.192;10.064;2023-05-10T10:57:20;2.43;;;2.00;;
12163;SDS011;6145;50.192;10.064;2023-05-10T11:02:49;2.80;;;1.73;;
12163;SDS011;6145;50.192;10.064;2023-05-10T11:08:10;4.40;;;2.17;;
12163;SDS011;6145;50.192;10.064;2023-05-10T11:10:38;2.33;;;2.13;;
12163;SDS011;6145;50.192;10.064;2023-05-10T11:13:06;2.90;;;2.10;;
12163;SDS011;6145;50.192;10.064;2023-05-10T11:15:35;2.73;;;2.10;;
12163;SDS011;6145;50.192;10.064;2023-05-10T11:18:19;2.03;;;1.77;;
12163;SDS011;6145;50.192;10.064;2023-05-10T11:20:50;2.87;;;1.50;;
12163;SDS011;6145;50.192;10.064;2023-05-10T11:23:17;2.37;;;1.70;;
12163;SDS011;6145;50.192;10.064;2023-05-10T11:25:46;2.00;;;1.50;;
12163;SDS011;6145;50.192;10.064;2023-05-10T11:28:14;1.80;;;1.70;;
12163;SDS011;6145;50.192;10.064;2023-05-10T11:30:44;4.43;;;1.80;;
12163;SDS011;6145;50.192;10.064;2023-05-10T11:33:15;1.80;;;1.70;;
12163;SDS011;6145;50.192;10.064;2023-05-10T11:35:44;1.60;;;1.50;;
12163;SDS011;6145;50.192;10.064;2023-05-10T11:38:12;2.90;;;1.30;;
12163;SDS011;6145;50.192;10.064;2023-05-10T11:40:39;2.67;;;1.70;;
12163;SDS011;6145;50.192;10.064;2023-05-10T11:43:08;3.73;;;2.03;;
12163;SDS011;6145;50.192;10.064;2023-05-10T11:45:36;1.80;;;1.70;;
12163;SDS011;6145;50.192;10.064;2023-05-10T11:48:03;1.87;;;1.70;;
12163;SDS011;6145;50.192;10.064;2023-05-10T11:50:31;1.57;;;1.47;;
12163;SDS011;6145;50.192;10.064;2023-05-10T11:53:00;2.20;;;2.00;;
12163;SDS011;6145;50.192;10.064;2023-05-10T11:55:28;1.90;;;1.80;;
12163;SDS011;6145;50.192;10.064;2023-05-10T11:57:59;2.40;;;1.70;;
12163;SDS011;6145;50.192;10.064;2023-05-10T12:00:27;1.70;;;1.60;;
12163;SDS011;6145;50.192;10.064;2023-05-10T12:02:55;1.60;;;1.50;;
12163;SDS011;6145;50.192;10.064;2023-05-10T12:05:22;2.33;;;1.73;;
12163;SDS011;6145;50.192;10.064;2023-05-10T12:07:50;1.77;;;1.57;;
12163;SDS011;6145;50.192;10.064;2023-05-10T12:10:18;2.07;;;1.40;;
12163;SDS011;6145;50.192;10.064;2023-05-10T12:12:52;1.67;;;1.57;;
12163;SDS011;6145;50.192;10.064;2023-05-10T12:15:19;1.63;;;1.53;;
12163;SDS011;6145;50.192;10.064;2023-05-10T12:17:47;1.63;;;1.53;;
12163;SDS011;6145;50.192;10.064;2023-05-10T12:20:15;1.33;;;1.27;;
12163;SDS011;6145;50.192;10.064;2023-05-10T12:22:43;5.63;;;2.27;;
12163;SDS011;6145;50.192;10.064;2023-05-10T12:25:15;3.47;;;1.52;;
12163;SDS011;6145;50.192;10.064;2023-05-10T12:27:49;1.50;;;1.38;;
12163;SDS011;6145;50.192;10.064;2023-05-10T12:30:20;3.65;;;1.60;;
12163;SDS011;6145;50.192;10.064;2023-05-10T12:32:49;1.55;;;1.45;;
12163;SDS011;6145;50.192;10.064;2023-05-10T12:35:17;3.03;;;1.73;;
12163;SDS011;6145;50.192;10.064;2023-05-10T12:37:47;2.97;;;1.60;;
12163;SDS011;6145;50.192;10.064;2023-05-10T12:40:14;3.67;;;1.60;;
12163;SDS011;6145;50.192;10.064;2023-05-10T12:42:44;1.40;;;1.30;;
12163;SDS011;6145;50.192;10.064;2023-05-10T12:45:12;1.40;;;1.30;;
12163;SDS011;6145;50.192;10.064;2023-05-10T12:47:40;1.70;;;1.60;;
12163;SDS011;6145;50.192;10.064;2023-05-10T12:50:07;1.50;;;1.40;;
12163;SDS011;6145;50.192;10.064;2023-05-10T12:52:34;2.83;;;1.70;;
12163;SDS011;6145;50.192;10.064;2023-05-10T12:55:02;1.48;;;1.38;;
12163;SDS011;6145;50.192;10.064;2023-05-10T12:57:30;2.72;;;1.58;;
12163;SDS011;6145;50.192;10.064;2023-05-10T13:00:00;4.13;;;2.33;;
12163;SDS011;6145;50.192;10.064;2023-05-10T13:02:28;3.03;;;1.67;;
12163;SDS011;6145;50.192;10.064;2023-05-10T13:04:55;1.63;;;1.50;;
12163;SDS011;6145;50.192;10.064;2023-05-10T13:07:22;2.20;;;1.52;;
12163;SDS011;6145;50.192;10.064;2023-05-10T13:09:49;2.90;;;1.57;;
12163;SDS011;6145;50.192;10.064;2023-05-10T13:12:16;1.40;;;1.27;;
12163;SDS011;6145;50.192;10.064;2023-05-10T13:14:46;1.53;;;1.43;;
12163;SDS011;6145;50.192;10.064;2023-05-10T13:17:13;3.50;;;1.67;;
12163;SDS011;6145;50.192;10.064;2023-05-10T13:19:41;1.40;;;1.30;;
12163;SDS011;6145;50.192;10.064;2023-05-10T13:22:09;1.37;;;1.10;;
12163;SDS011;6145;50.192;10.064;2023-05-10T13:24:36;1.40;;;1.30;;
12163;SDS011;6145;50.192;10.064;2023-05-10T13:27:03;1.73;;;1.00;;
12163;SDS011;6145;50.192;10.064;2023-05-10T13:29:33;1.60;;;1.20;;
12163;SDS011;6145;50.192;10.064;2023-05-10T13:32:00;1.90;;;1.03;;
12163;SDS011;6145;50.192;10.064;2023-05-10T13:34:27;1.90;;;1.20;;
12163;SDS011;6145;50.192;10.064;2023-05-10T13:36:55;1.70;;;1.10;;
12163;SDS011;6145;50.192;10.064;2023-05-10T13:39:22;1.17;;;1.07;;
12163;SDS011;6145;50.192;10.064;2023-05-10T13:41:49;1.80;;;1.07;;
12163;SDS011;6145;50.192;10.064;2023-05-10T13:44:19;1.57;;;1.10;;
12163;SDS011;6145;50.192;10.064;2023-05-10T13:46:46;2.00;;;1.07;;
12163;SDS011;6145;50.192;10.064;2023-05-10T13:49:13;1.43;;;1.30;;
12163;SDS011;6145;50.192;10.064;2023-05-10T13:51:40;1.30;;;1.20;;
12163;SDS011;6145;50.192;10.064;2023-05-10T13:54:09;1.47;;;1.37;;
12163;SDS011;6145;50.192;10.064;2023-05-10T13:56:37;1.47;;;1.37;;
12163;SDS011;6145;50.192;10.064;2023-05-10T13:59:05;1.10;;;1.10;;
12163;SDS011;6145;50.192;10.064;2023-05-10T14:01:32;2.27;;;1.43;;
12163;SDS011;6145;50.192;10.064;2023-05-10T14:04:17;3.17;;;1.27;;
12163;SDS011;6145;50.192;10.064;2023-05-10T14:06:44;1.30;;;1.20;;
12163;SDS011;6145;50.192;10.064;2023-05-10T14:09:12;6.20;;;2.17;;
12163;SDS011;6145;50.192;10.064;2023-05-10T14:11:39;4.53;;;1.80;;
12163;SDS011;6145;50.192;10.064;2023-05-10T14:14:08;2.03;;;1.40;;
12163;SDS011;6145;50.192;10.064;2023-05-10T14:16:35;2.23;;;1.43;;
12163;SDS011;6145;50.192;10.064;2023-05-10T14:19:02;1.47;;;1.37;;
12163;SDS011;6145;50.192;10.064;2023-05-10T14:21:28;1.53;;;1.43;;
12163;SDS011;6145;50.192;10.064;2023-05-10T14:23:55;1.60;;;1.50;;
12163;SDS011;6145;50.192;10.064;2023-05-10T14:26:24;1.50;;;1.40;;
12163;SDS011;6145;50.192;10.064;2023-05-10T14:28:51;1.83;;;1.40;;
12163;SDS011;6145;50.192;10.064;2023-05-10T14:31:18;1.80;;;1.30;;
12163;SDS011;6145;50.192;10.064;2023-05-10T14:33:45;1.40;;;1.30;;
12163;SDS011;6145;50.192;10.064;2023-05-10T14:36:12;1.33;;;1.23;;
12163;SDS011;6145;50.192;10.064;2023-05-10T14:38:39;1.30;;;1.20;;
12163;SDS011;6145;50.192;10.064;2023-05-10T14:41:06;2.20;;;1.20;;
12163;SDS011;6145;50.192;10.064;2023-05-10T14:43:35;1.77;;;1.30;;
12163;SDS011;6145;50.192;10.064;2023-05-10T14:46:02;1.20;;;1.10;;
12163;SDS011;6145;50.192;10.064;2023-05-10T14:48:29;1.43;;;1.30;;
12163;SDS011;6145;50.192;10.064;2023-05-10T14:50:56;1.40;;;1.30;;
12163;SDS011;6145;50.192;10.064;2023-05-10T14:53:23;2.43;;;1.30;;
12163;SDS011;6145;50.192;10.064;2023-05-10T14:55:50;1.30;;;1.20;;
12163;SDS011;6145;50.192;10.064;2023-05-10T14:58:17;1.20;;;1.10;;
12163;SDS011;6145;50.192;10.064;2023-05-10T15:00:46;2.73;;;1.13;;
12163;SDS011;6145;50.192;10.064;2023-05-10T15:03:13;1.43;;;1.23;;
12163;SDS011;6145;50.192;10.064;2023-05-10T15:05:40;2.40;;;1.10;;
12163;SDS011;6145;50.192;10.064;2023-05-10T15:08:07;1.93;;;1.20;;
12163;SDS011;6145;50.192;10.064;2023-05-10T15:10:34;1.77;;;0.90;;
12163;SDS011;6145;50.192;10.064;2023-05-10T15:13:02;1.37;;;1.27;;
12163;SDS011;6145;50.192;10.064;2023-05-10T15:15:36;2.53;;;1.20;;
12163;SDS011;6145;50.192;10.064;2023-05-10T15:18:05;1.20;;;1.10;;